Golden Shanghai — 9HA2862 — position and weather

sailwx.info

Track history (hours):
 
Tides and Currents Weather Stations Pressure Air Temp Water Temp Dewpoint Dewpoint Depression Visibility Wind Speed Wind Dir Waves Ship Positions

Golden Shanghai

Last reported at 2017-Feb-07 15:18 UTC. Time now 2017-Feb-26 03:22 UTC.
Position N 01°15' E 104°03'.
Warning: this ship's position is 18 days out of date.

Length 292 m; draft 18.2 m.

Type: Cargo ship. MMSI: 256456000.

Date/timePositionNaut miles runAvg speedWind from/ knotsBaromVisibWave heightAir tempDewpointWater temp
2017-Feb-07 15:18N 01°15' E 104°03'4 5.7
2017-Feb-07 14:33N 01°16' E 103°58'1 0.8
2017-Feb-07 13:32N 01°16' E 103°58'0 0.0
2017-Feb-07 12:32N 01°16' E 103°58'0 0.0
2017-Feb-07 11:32N 01°16' E 103°58'0 0.1
2017-Feb-07 10:26N 01°16' E 103°58'0 0.2
2017-Feb-07 09:23N 01°16' E 103°58'0 0.1
2017-Feb-07 08:23N 01°16' E 103°58'0 0.0
2017-Feb-07 07:26N 01°16' E 103°58'0 0.0
2017-Feb-07 06:32N 01°16' E 103°58'0 0.0
2017-Feb-07 05:20N 01°16' E 103°58'0 0.0
2017-Feb-07 04:29N 01°16' E 103°58'0 0.0
2017-Feb-07 03:05N 01°16' E 103°58'0 0.0
2017-Feb-07 02:26N 01°16' E 103°58'0 0.3
2017-Feb-07 01:32N 01°16' E 103°58'0 0.1
2017-Feb-07 00:34N 01°16' E 103°58'2 2.5
2017-Feb-06 23:33N 01°17' E 104°00'1 0.5
2017-Feb-06 22:27N 01°17' E 104°00'0 0.0
2017-Feb-06 21:30N 01°17' E 104°00'0 0.0
2017-Feb-06 20:33N 01°17' E 104°00'0 0.0
2017-Feb-06 19:30N 01°17' E 104°00'0 0.0
2017-Feb-06 18:33N 01°17' E 104°00'0 0.0
2017-Feb-06 17:33N 01°17' E 104°00'0 0.0
2017-Feb-06 16:18N 01°17' E 104°00'0 0.0
2017-Feb-06 15:33N 01°17' E 104°00'0 0.0
2017-Feb-06 13:33N 01°17' E 104°00'0 0.0
2017-Feb-06 12:33N 01°17' E 104°00'0 0.0
2017-Feb-06 11:30N 01°17' E 104°00'0 0.0
2017-Feb-06 10:17N 01°17' E 104°00'0 0.1
2017-Feb-06 09:27N 01°17' E 104°00'0 0.1
2017-Feb-06 05:33N 01°17' E 104°01'0 0.0
2017-Feb-06 04:33N 01°17' E 104°01'0 0.0
2017-Feb-06 03:30N 01°17' E 104°01'0 0.1
2017-Feb-06 02:33N 01°17' E 104°01'2 2.2
2017-Feb-06 01:33N 01°16' E 103°59'3 3.1
2017-Feb-06 00:33N 01°14' E 103°56'9 8.9
2017-Feb-05 23:33N 01°10' E 103°48'62 8.8
2017-Feb-05 16:33N 01°35' E 102°52'1010.1
2017-Feb-05 15:32N 01°40' E 102°43'11 9.8
2017-Feb-05 14:25N 01°44' E 102°33'910.0
2017-Feb-05 13:32N 01°48' E 102°25'20 9.8
2017-Feb-05 11:31N 01°57' E 102°08'  
Track history (hours):
 
Tides and Currents Weather Stations Pressure Air Temp Water Temp Dewpoint Dewpoint Depression Visibility Wind Speed Wind Dir Waves Ship Positions

Golden Shanghai

Last reported at 2017-Feb-07 15:18 UTC. Time now 2017-Feb-26 03:22 UTC.
Position N 01°15' E 104°03'.
Warning: this ship's position is 18 days out of date.

Length 292 m; draft 18.2 m.

Type: Cargo ship. MMSI: 256456000.

Date/timePositionNaut miles runAvg speedWind from/ knotsBaromVisibWave heightAir tempDewpointWater temp
2017-Feb-07 15:18N 01°15' E 104°03'4 5.7
2017-Feb-07 14:33N 01°16' E 103°58'1 0.8
2017-Feb-07 13:32N 01°16' E 103°58'0 0.0
2017-Feb-07 12:32N 01°16' E 103°58'0 0.0
2017-Feb-07 11:32N 01°16' E 103°58'0 0.1
2017-Feb-07 10:26N 01°16' E 103°58'0 0.2
2017-Feb-07 09:23N 01°16' E 103°58'0 0.1
2017-Feb-07 08:23N 01°16' E 103°58'0 0.0
2017-Feb-07 07:26N 01°16' E 103°58'0 0.0
2017-Feb-07 06:32N 01°16' E 103°58'0 0.0
2017-Feb-07 05:20N 01°16' E 103°58'0 0.0
2017-Feb-07 04:29N 01°16' E 103°58'0 0.0
2017-Feb-07 03:05N 01°16' E 103°58'0 0.0
2017-Feb-07 02:26N 01°16' E 103°58'0 0.3
2017-Feb-07 01:32N 01°16' E 103°58'0 0.1
2017-Feb-07 00:34N 01°16' E 103°58'2 2.5
2017-Feb-06 23:33N 01°17' E 104°00'1 0.5
2017-Feb-06 22:27N 01°17' E 104°00'0 0.0
2017-Feb-06 21:30N 01°17' E 104°00'0 0.0
2017-Feb-06 20:33N 01°17' E 104°00'0 0.0
2017-Feb-06 19:30N 01°17' E 104°00'0 0.0
2017-Feb-06 18:33N 01°17' E 104°00'0 0.0
2017-Feb-06 17:33N 01°17' E 104°00'0 0.0
2017-Feb-06 16:18N 01°17' E 104°00'0 0.0
2017-Feb-06 15:33N 01°17' E 104°00'0 0.0
2017-Feb-06 13:33N 01°17' E 104°00'0 0.0
2017-Feb-06 12:33N 01°17' E 104°00'0 0.0
2017-Feb-06 11:30N 01°17' E 104°00'0 0.0
2017-Feb-06 10:17N 01°17' E 104°00'0 0.1
2017-Feb-06 09:27N 01°17' E 104°00'0 0.1
2017-Feb-06 05:33N 01°17' E 104°01'0 0.0
2017-Feb-06 04:33N 01°17' E 104°01'0 0.0
2017-Feb-06 03:30N 01°17' E 104°01'0 0.1
2017-Feb-06 02:33N 01°17' E 104°01'2 2.2
2017-Feb-06 01:33N 01°16' E 103°59'3 3.1
2017-Feb-06 00:33N 01°14' E 103°56'9 8.9
2017-Feb-05 23:33N 01°10' E 103°48'62 8.8
2017-Feb-05 16:33N 01°35' E 102°52'1010.1
2017-Feb-05 15:32N 01°40' E 102°43'11 9.8
2017-Feb-05 14:25N 01°44' E 102°33'910.0
2017-Feb-05 13:32N 01°48' E 102°25'20 9.8
2017-Feb-05 11:31N 01°57' E 102°08'  

Dump ship's entire track history